sensor_id;sensor_type;location;lat;lon;timestamp;temperature;humidity
64858;SHT30;51335;51.148;6.950;2022-10-01T00:00:03;11.92;79.23
64858;SHT30;51335;51.148;6.950;2022-10-01T00:00:33;11.90;79.16
64858;SHT30;51335;51.148;6.950;2022-10-01T00:01:06;11.90;79.05
64858;SHT30;51335;51.148;6.950;2022-10-01T00:01:36;11.87;79.10
64858;SHT30;51335;51.148;6.950;2022-10-01T00:02:07;11.87;79.27
64858;SHT30;51335;51.148;6.950;2022-10-01T00:02:38;11.89;79.20
64858;SHT30;51335;51.148;6.950;2022-10-01T00:03:08;11.89;79.22
64858;SHT30;51335;51.148;6.950;2022-10-01T00:03:38;11.93;79.17
64858;SHT30;51335;51.148;6.950;2022-10-01T00:04:09;11.97;79.00
64858;SHT30;51335;51.148;6.950;2022-10-01T00:04:39;11.94;78.96
64858;SHT30;51335;51.148;6.950;2022-10-01T00:05:09;11.96;79.01
64858;SHT30;51335;51.148;6.950;2022-10-01T00:05:39;11.97;79.09
64858;SHT30;51335;51.148;6.950;2022-10-01T00:06:42;11.96;79.01
64858;SHT30;51335;51.148;6.950;2022-10-01T00:07:12;11.96;79.09
64858;SHT30;51335;51.148;6.950;2022-10-01T00:07:43;11.99;79.14
64858;SHT30;51335;51.148;6.950;2022-10-01T00:08:14;12.04;79.10
64858;SHT30;51335;51.148;6.950;2022-10-01T00:08:46;12.06;79.14
64858;SHT30;51335;51.148;6.950;2022-10-01T00:09:17;12.03;78.99
64858;SHT30;51335;51.148;6.950;2022-10-01T00:09:47;11.96;79.00
64858;SHT30;51335;51.148;6.950;2022-10-01T00:10:18;11.93;79.13
64858;SHT30;51335;51.148;6.950;2022-10-01T00:10:48;11.97;79.27
64858;SHT30;51335;51.148;6.950;2022-10-01T00:11:23;11.97;79.22
64858;SHT30;51335;51.148;6.950;2022-10-01T00:11:54;11.99;79.35
64858;SHT30;51335;51.148;6.950;2022-10-01T00:12:24;12.02;79.44
64858;SHT30;51335;51.148;6.950;2022-10-01T00:12:54;12.06;79.41
64858;SHT30;51335;51.148;6.950;2022-10-01T00:13:25;12.04;79.24
64858;SHT30;51335;51.148;6.950;2022-10-01T00:13:56;11.99;79.23
64858;SHT30;51335;51.148;6.950;2022-10-01T00:14:26;11.97;79.36
64858;SHT30;51335;51.148;6.950;2022-10-01T00:14:56;11.99;79.34
64858;SHT30;51335;51.148;6.950;2022-10-01T00:15:27;12.00;79.33
64858;SHT30;51335;51.148;6.950;2022-10-01T00:15:57;11.94;79.41
64858;SHT30;51335;51.148;6.950;2022-10-01T00:16:29;11.93;79.62
64858;SHT30;51335;51.148;6.950;2022-10-01T00:16:59;11.92;79.69
64858;SHT30;51335;51.148;6.950;2022-10-01T00:17:30;11.90;79.67
64858;SHT30;51335;51.148;6.950;2022-10-01T00:18:00;11.92;79.71
64858;SHT30;51335;51.148;6.950;2022-10-01T00:18:30;11.93;79.64
64858;SHT30;51335;51.148;6.950;2022-10-01T00:19:00;11.93;79.53
64858;SHT30;51335;51.148;6.950;2022-10-01T00:19:31;11.90;79.72
64858;SHT30;51335;51.148;6.950;2022-10-01T00:20:03;11.89;79.88
64858;SHT30;51335;51.148;6.950;2022-10-01T00:20:33;11.87;80.00
64858;SHT30;51335;51.148;6.950;2022-10-01T00:21:08;11.87;80.01
64858;SHT30;51335;51.148;6.950;2022-10-01T00:21:39;11.94;80.06
64858;SHT30;51335;51.148;6.950;2022-10-01T00:22:09;11.94;80.16
64858;SHT30;51335;51.148;6.950;2022-10-01T00:22:40;11.92;80.25
64858;SHT30;51335;51.148;6.950;2022-10-01T00:23:11;11.93;80.48
64858;SHT30;51335;51.148;6.950;2022-10-01T00:23:41;11.94;80.47
64858;SHT30;51335;51.148;6.950;2022-10-01T00:24:12;11.93;80.52
64858;SHT30;51335;51.148;6.950;2022-10-01T00:24:42;11.99;80.58
64858;SHT30;51335;51.148;6.950;2022-10-01T00:25:13;11.99;80.55
64858;SHT30;51335;51.148;6.950;2022-10-01T00:25:43;12.00;80.58
64858;SHT30;51335;51.148;6.950;2022-10-01T00:26:15;11.94;80.88
64858;SHT30;51335;51.148;6.950;2022-10-01T00:26:45;12.03;80.72
64858;SHT30;51335;51.148;6.950;2022-10-01T00:27:15;12.04;80.60
64858;SHT30;51335;51.148;6.950;2022-10-01T00:27:46;12.04;80.71
64858;SHT30;51335;51.148;6.950;2022-10-01T00:28:16;12.07;80.68
64858;SHT30;51335;51.148;6.950;2022-10-01T00:28:47;12.07;80.62
64858;SHT30;51335;51.148;6.950;2022-10-01T00:29:21;12.07;80.73
64858;SHT30;51335;51.148;6.950;2022-10-01T00:29:52;12.09;80.71
64858;SHT30;51335;51.148;6.950;2022-10-01T00:30:22;12.10;81.12
64858;SHT30;51335;51.148;6.950;2022-10-01T00:30:52;12.12;80.94
64858;SHT30;51335;51.148;6.950;2022-10-01T00:31:23;12.09;80.95
64858;SHT30;51335;51.148;6.950;2022-10-01T00:31:53;12.07;81.16
64858;SHT30;51335;51.148;6.950;2022-10-01T00:32:24;12.03;81.45
64858;SHT30;51335;51.148;6.950;2022-10-01T00:32:54;12.03;81.70
64858;SHT30;51335;51.148;6.950;2022-10-01T00:33:24;12.03;81.78
64858;SHT30;51335;51.148;6.950;2022-10-01T00:33:56;12.06;82.01
64858;SHT30;51335;51.148;6.950;2022-10-01T00:34:27;12.02;82.08
64858;SHT30;51335;51.148;6.950;2022-10-01T00:35:00;12.00;82.28
64858;SHT30;51335;51.148;6.950;2022-10-01T00:35:31;11.97;82.45
64858;SHT30;51335;51.148;6.950;2022-10-01T00:36:02;11.94;82.61
64858;SHT30;51335;51.148;6.950;2022-10-01T00:36:33;11.94;82.76
64858;SHT30;51335;51.148;6.950;2022-10-01T00:37:03;11.92;82.85
64858;SHT30;51335;51.148;6.950;2022-10-01T00:37:37;11.94;83.18
64858;SHT30;51335;51.148;6.950;2022-10-01T00:38:07;11.93;83.24
64858;SHT30;51335;51.148;6.950;2022-10-01T00:38:38;11.94;83.27
64858;SHT30;51335;51.148;6.950;2022-10-01T00:39:10;12.00;83.17
64858;SHT30;51335;51.148;6.950;2022-10-01T00:39:41;12.02;83.21
64858;SHT30;51335;51.148;6.950;2022-10-01T00:40:11;11.99;83.35
64858;SHT30;51335;51.148;6.950;2022-10-01T00:40:41;12.00;83.44
64858;SHT30;51335;51.148;6.950;2022-10-01T00:41:11;11.97;83.46
64858;SHT30;51335;51.148;6.950;2022-10-01T00:41:42;11.94;83.70
64858;SHT30;51335;51.148;6.950;2022-10-01T00:42:18;11.97;83.59
64858;SHT30;51335;51.148;6.950;2022-10-01T00:42:49;11.99;83.74
64858;SHT30;51335;51.148;6.950;2022-10-01T00:43:23;12.02;83.87
64858;SHT30;51335;51.148;6.950;2022-10-01T00:44:23;11.99;83.92
64858;SHT30;51335;51.148;6.950;2022-10-01T00:44:49;11.99;83.99
64858;SHT30;51335;51.148;6.950;2022-10-01T00:45:20;11.99;84.01
64858;SHT30;51335;51.148;6.950;2022-10-01T00:45:51;12.00;84.01
64858;SHT30;51335;51.148;6.950;2022-10-01T00:46:24;12.07;83.95
64858;SHT30;51335;51.148;6.950;2022-10-01T00:46:59;12.06;83.65
64858;SHT30;51335;51.148;6.950;2022-10-01T00:47:34;12.07;83.66
64858;SHT30;51335;51.148;6.950;2022-10-01T00:48:05;12.13;83.72
64858;SHT30;51335;51.148;6.950;2022-10-01T00:48:41;12.06;83.85
64858;SHT30;51335;51.148;6.950;2022-10-01T00:49:19;12.12;84.14
64858;SHT30;51335;51.148;6.950;2022-10-01T00:49:56;12.10;84.07
64858;SHT30;51335;51.148;6.950;2022-10-01T00:50:32;12.06;84.23
64858;SHT30;51335;51.148;6.950;2022-10-01T00:51:03;12.04;84.41
64858;SHT30;51335;51.148;6.950;2022-10-01T00:51:38;11.99;84.59
64858;SHT30;51335;51.148;6.950;2022-10-01T00:52:15;12.00;84.73
64858;SHT30;51335;51.148;6.950;2022-10-01T00:52:49;11.97;84.79
64858;SHT30;51335;51.148;6.950;2022-10-01T00:53:22;11.99;85.06
64858;SHT30;51335;51.148;6.950;2022-10-01T00:53:58;11.96;85.13
64858;SHT30;51335;51.148;6.950;2022-10-01T00:54:38;11.94;85.17
64858;SHT30;51335;51.148;6.950;2022-10-01T00:55:20;11.99;85.37
64858;SHT30;51335;51.148;6.950;2022-10-01T00:55:54;12.00;85.43
64858;SHT30;51335;51.148;6.950;2022-10-01T00:56:25;11.97;85.48
64858;SHT30;51335;51.148;6.950;2022-10-01T00:56:57;11.99;85.46
64858;SHT30;51335;51.148;6.950;2022-10-01T00:57:28;11.90;85.65
64858;SHT30;51335;51.148;6.950;2022-10-01T00:57:59;11.92;85.75
64858;SHT30;51335;51.148;6.950;2022-10-01T00:58:30;11.90;85.82
64858;SHT30;51335;51.148;6.950;2022-10-01T00:59:00;11.90;86.03
64858;SHT30;51335;51.148;6.950;2022-10-01T00:59:31;11.87;86.22
64858;SHT30;51335;51.148;6.950;2022-10-01T01:00:05;11.86;86.46
64858;SHT30;51335;51.148;6.950;2022-10-01T01:00:36;11.82;86.48
64858;SHT30;51335;51.148;6.950;2022-10-01T01:01:07;11.83;86.66
64858;SHT30;51335;51.148;6.950;2022-10-01T01:01:37;11.86;86.45
64858;SHT30;51335;51.148;6.950;2022-10-01T01:02:08;11.87;86.35
64858;SHT30;51335;51.148;6.950;2022-10-01T01:02:39;11.86;86.43
64858;SHT30;51335;51.148;6.950;2022-10-01T01:03:10;11.83;86.46
64858;SHT30;51335;51.148;6.950;2022-10-01T01:03:40;11.83;86.55
64858;SHT30;51335;51.148;6.950;2022-10-01T01:04:10;11.82;86.71
64858;SHT30;51335;51.148;6.950;2022-10-01T01:04:41;11.82;86.59
64858;SHT30;51335;51.148;6.950;2022-10-01T01:05:12;11.85;86.74
64858;SHT30;51335;51.148;6.950;2022-10-01T01:05:43;11.86;86.63
64858;SHT30;51335;51.148;6.950;2022-10-01T01:06:13;11.82;86.68
64858;SHT30;51335;51.148;6.950;2022-10-01T01:06:46;11.78;86.85
64858;SHT30;51335;51.148;6.950;2022-10-01T01:07:18;11.76;86.98
64858;SHT30;51335;51.148;6.950;2022-10-01T01:07:50;11.79;87.12
64858;SHT30;51335;51.148;6.950;2022-10-01T01:08:22;11.79;87.10
64858;SHT30;51335;51.148;6.950;2022-10-01T01:08:53;11.79;87.08
64858;SHT30;51335;51.148;6.950;2022-10-01T01:09:30;11.81;87.21
64858;SHT30;51335;51.148;6.950;2022-10-01T01:10:02;11.76;87.22
64858;SHT30;51335;51.148;6.950;2022-10-01T01:11:23;11.65;87.77
64858;SHT30;51335;51.148;6.950;2022-10-01T01:14:23;11.68;88.20
64858;SHT30;51335;51.148;6.950;2022-10-01T01:15:46;11.61;88.39
64858;SHT30;51335;51.148;6.950;2022-10-01T01:16:26;11.58;88.73
64858;SHT30;51335;51.148;6.950;2022-10-01T01:17:01;11.57;88.77
64858;SHT30;51335;51.148;6.950;2022-10-01T01:18:40;11.52;88.97
64858;SHT30;51335;51.148;6.950;2022-10-01T01:19:27;11.58;88.91
64858;SHT30;51335;51.148;6.950;2022-10-01T01:22:03;11.44;89.71
64858;SHT30;51335;51.148;6.950;2022-10-01T01:22:40;11.46;89.70
64858;SHT30;51335;51.148;6.950;2022-10-01T01:24:25;11.38;89.94
64858;SHT30;51335;51.148;6.950;2022-10-01T01:25:01;11.37;90.16
64858;SHT30;51335;51.148;6.950;2022-10-01T01:26:30;11.42;90.10
64858;SHT30;51335;51.148;6.950;2022-10-01T01:27:23;11.39;89.87
64858;SHT30;51335;51.148;6.950;2022-10-01T01:28:23;11.42;89.93
64858;SHT30;51335;51.148;6.950;2022-10-01T01:29:05;11.37;90.27
64858;SHT30;51335;51.148;6.950;2022-10-01T01:30:35;11.37;90.30
64858;SHT30;51335;51.148;6.950;2022-10-01T01:31:10;11.38;90.32
64858;SHT30;51335;51.148;6.950;2022-10-01T01:31:44;11.35;90.59
64858;SHT30;51335;51.148;6.950;2022-10-01T01:32:28;11.32;90.67
64858;SHT30;51335;51.148;6.950;2022-10-01T01:33:10;11.34;90.56
64858;SHT30;51335;51.148;6.950;2022-10-01T01:33:44;11.30;90.60
64858;SHT30;51335;51.148;6.950;2022-10-01T01:34:25;11.28;90.75
64858;SHT30;51335;51.148;6.950;2022-10-01T01:34:59;11.28;90.97
64858;SHT30;51335;51.148;6.950;2022-10-01T01:35:40;11.23;91.00
64858;SHT30;51335;51.148;6.950;2022-10-01T01:36:16;11.21;91.15
64858;SHT30;51335;51.148;6.950;2022-10-01T01:36:53;11.23;91.26
64858;SHT30;51335;51.148;6.950;2022-10-01T01:37:26;11.21;91.33
64858;SHT30;51335;51.148;6.950;2022-10-01T01:38:01;11.17;91.48
64858;SHT30;51335;51.148;6.950;2022-10-01T01:38:39;11.16;91.68
64858;SHT30;51335;51.148;6.950;2022-10-01T01:39:13;11.20;91.68
64858;SHT30;51335;51.148;6.950;2022-10-01T01:39:49;11.21;91.50
64858;SHT30;51335;51.148;6.950;2022-10-01T01:40:21;11.25;91.36
64858;SHT30;51335;51.148;6.950;2022-10-01T01:40:52;11.27;91.40
64858;SHT30;51335;51.148;6.950;2022-10-01T01:41:26;11.23;91.42
64858;SHT30;51335;51.148;6.950;2022-10-01T01:42:03;11.23;91.56
64858;SHT30;51335;51.148;6.950;2022-10-01T01:42:36;11.25;91.64
64858;SHT30;51335;51.148;6.950;2022-10-01T01:43:13;11.27;91.44
64858;SHT30;51335;51.148;6.950;2022-10-01T01:43:45;11.27;91.25
64858;SHT30;51335;51.148;6.950;2022-10-01T01:44:27;11.21;91.61
64858;SHT30;51335;51.148;6.950;2022-10-01T01:44:59;11.24;91.49
64858;SHT30;51335;51.148;6.950;2022-10-01T01:45:32;11.20;91.47
64858;SHT30;51335;51.148;6.950;2022-10-01T01:46:05;11.20;91.71
64858;SHT30;51335;51.148;6.950;2022-10-01T01:46:39;11.18;91.82
64858;SHT30;51335;51.148;6.950;2022-10-01T01:47:13;11.17;91.80
64858;SHT30;51335;51.148;6.950;2022-10-01T01:47:44;11.18;91.87
64858;SHT30;51335;51.148;6.950;2022-10-01T01:48:14;11.18;91.74
64858;SHT30;51335;51.148;6.950;2022-10-01T01:48:45;11.17;91.78
64858;SHT30;51335;51.148;6.950;2022-10-01T01:49:18;11.17;91.99
64858;SHT30;51335;51.148;6.950;2022-10-01T01:49:50;11.07;92.07
64858;SHT30;51335;51.148;6.950;2022-10-01T01:50:22;11.08;92.19
64858;SHT30;51335;51.148;6.950;2022-10-01T01:52:07;11.14;92.18
64858;SHT30;51335;51.148;6.950;2022-10-01T01:52:39;11.13;92.20
64858;SHT30;51335;51.148;6.950;2022-10-01T01:53:09;11.16;92.26
64858;SHT30;51335;51.148;6.950;2022-10-01T01:53:40;11.18;92.27
64858;SHT30;51335;51.148;6.950;2022-10-01T01:54:10;11.17;92.10
64858;SHT30;51335;51.148;6.950;2022-10-01T01:54:42;11.17;92.09
64858;SHT30;51335;51.148;6.950;2022-10-01T01:55:13;11.24;91.95
64858;SHT30;51335;51.148;6.950;2022-10-01T01:55:43;11.14;92.01
64858;SHT30;51335;51.148;6.950;2022-10-01T01:56:14;11.18;92.15
64858;SHT30;51335;51.148;6.950;2022-10-01T01:56:45;11.16;92.14
64858;SHT30;51335;51.148;6.950;2022-10-01T01:57:18;11.08;92.13
64858;SHT30;51335;51.148;6.950;2022-10-01T01:57:48;11.07;92.23
64858;SHT30;51335;51.148;6.950;2022-10-01T01:58:19;11.08;92.28
64858;SHT30;51335;51.148;6.950;2022-10-01T01:58:50;11.08;92.32
64858;SHT30;51335;51.148;6.950;2022-10-01T01:59:21;11.08;92.45
64858;SHT30;51335;51.148;6.950;2022-10-01T01:59:52;11.07;92.42
64858;SHT30;51335;51.148;6.950;2022-10-01T02:00:23;11.07;92.36
64858;SHT30;51335;51.148;6.950;2022-10-01T02:00:53;11.11;92.46
64858;SHT30;51335;51.148;6.950;2022-10-01T02:01:41;11.07;92.44
64858;SHT30;51335;51.148;6.950;2022-10-01T02:02:18;11.06;92.56
64858;SHT30;51335;51.148;6.950;2022-10-01T02:02:51;11.07;92.68
64858;SHT30;51335;51.148;6.950;2022-10-01T02:03:24;11.07;92.62
64858;SHT30;51335;51.148;6.950;2022-10-01T02:03:56;11.06;92.64
64858;SHT30;51335;51.148;6.950;2022-10-01T02:04:57;11.10;92.62
64858;SHT30;51335;51.148;6.950;2022-10-01T02:05:35;11.10;92.57
64858;SHT30;51335;51.148;6.950;2022-10-01T02:06:33;11.11;92.61
64858;SHT30;51335;51.148;6.950;2022-10-01T02:10:03;11.07;92.79
64858;SHT30;51335;51.148;6.950;2022-10-01T02:11:15;11.06;92.61
64858;SHT30;51335;51.148;6.950;2022-10-01T02:12:08;11.03;92.86
64858;SHT30;51335;51.148;6.950;2022-10-01T02:13:08;10.99;93.10
64858;SHT30;51335;51.148;6.950;2022-10-01T02:15:39;10.96;93.36
64858;SHT30;51335;51.148;6.950;2022-10-01T02:16:39;10.99;93.20
64858;SHT30;51335;51.148;6.950;2022-10-01T02:17:19;11.01;93.21
64858;SHT30;51335;51.148;6.950;2022-10-01T02:20:02;11.00;93.28
64858;SHT30;51335;51.148;6.950;2022-10-01T02:20:38;11.01;93.48
64858;SHT30;51335;51.148;6.950;2022-10-01T02:21:37;10.96;93.33
64858;SHT30;51335;51.148;6.950;2022-10-01T02:22:17;11.03;93.26
64858;SHT30;51335;51.148;6.950;2022-10-01T02:22:53;11.03;93.19
64858;SHT30;51335;51.148;6.950;2022-10-01T02:23:28;11.01;93.32
64858;SHT30;51335;51.148;6.950;2022-10-01T02:25:30;11.00;93.39
64858;SHT30;51335;51.148;6.950;2022-10-01T02:26:07;11.01;93.30
64858;SHT30;51335;51.148;6.950;2022-10-01T02:26:41;11.04;93.37
64858;SHT30;51335;51.148;6.950;2022-10-01T02:27:29;11.06;93.38
64858;SHT30;51335;51.148;6.950;2022-10-01T02:28:05;11.03;93.42
64858;SHT30;51335;51.148;6.950;2022-10-01T02:28:38;11.01;93.57
64858;SHT30;51335;51.148;6.950;2022-10-01T02:29:13;11.01;93.62
64858;SHT30;51335;51.148;6.950;2022-10-01T02:29:46;11.01;93.67
64858;SHT30;51335;51.148;6.950;2022-10-01T02:30:17;11.03;93.70
64858;SHT30;51335;51.148;6.950;2022-10-01T02:30:50;11.00;93.78
64858;SHT30;51335;51.148;6.950;2022-10-01T02:31:21;11.01;93.76
64858;SHT30;51335;51.148;6.950;2022-10-01T02:31:53;11.01;93.82
64858;SHT30;51335;51.148;6.950;2022-10-01T02:32:26;10.99;93.85
64858;SHT30;51335;51.148;6.950;2022-10-01T02:32:58;10.99;93.85
64858;SHT30;51335;51.148;6.950;2022-10-01T02:33:32;11.01;93.69
64858;SHT30;51335;51.148;6.950;2022-10-01T02:34:05;10.99;93.84
64858;SHT30;51335;51.148;6.950;2022-10-01T02:34:37;10.97;93.85
64858;SHT30;51335;51.148;6.950;2022-10-01T02:35:11;11.00;93.96
64858;SHT30;51335;51.148;6.950;2022-10-01T02:35:44;11.03;93.96
64858;SHT30;51335;51.148;6.950;2022-10-01T02:36:17;11.00;93.97
64858;SHT30;51335;51.148;6.950;2022-10-01T02:36:49;11.04;94.01
64858;SHT30;51335;51.148;6.950;2022-10-01T02:37:23;11.04;93.96
64858;SHT30;51335;51.148;6.950;2022-10-01T02:37:55;11.07;93.85
64858;SHT30;51335;51.148;6.950;2022-10-01T02:38:28;11.10;93.67
64858;SHT30;51335;51.148;6.950;2022-10-01T02:39:00;11.13;93.60
64858;SHT30;51335;51.148;6.950;2022-10-01T02:39:32;11.10;93.53
64858;SHT30;51335;51.148;6.950;2022-10-01T02:40:07;11.07;93.68
64858;SHT30;51335;51.148;6.950;2022-10-01T02:40:40;11.11;93.64
64858;SHT30;51335;51.148;6.950;2022-10-01T02:41:14;11.10;93.50
64858;SHT30;51335;51.148;6.950;2022-10-01T02:41:48;11.03;93.58
64858;SHT30;51335;51.148;6.950;2022-10-01T02:42:21;11.03;93.80
64858;SHT30;51335;51.148;6.950;2022-10-01T02:42:54;11.03;94.17
64858;SHT30;51335;51.148;6.950;2022-10-01T02:43:32;11.07;94.00
64858;SHT30;51335;51.148;6.950;2022-10-01T02:44:25;11.06;94.03
64858;SHT30;51335;51.148;6.950;2022-10-01T02:44:58;11.06;94.07
64858;SHT30;51335;51.148;6.950;2022-10-01T02:45:31;11.03;94.13
64858;SHT30;51335;51.148;6.950;2022-10-01T02:46:13;10.99;94.41
64858;SHT30;51335;51.148;6.950;2022-10-01T02:47:08;10.95;94.51
64858;SHT30;51335;51.148;6.950;2022-10-01T02:47:43;10.96;94.58
64858;SHT30;51335;51.148;6.950;2022-10-01T02:48:15;10.93;94.59
64858;SHT30;51335;51.148;6.950;2022-10-01T02:48:46;10.93;94.69
64858;SHT30;51335;51.148;6.950;2022-10-01T02:49:17;10.97;94.72
64858;SHT30;51335;51.148;6.950;2022-10-01T02:49:48;10.95;94.69
64858;SHT30;51335;51.148;6.950;2022-10-01T02:50:18;11.00;94.77
64858;SHT30;51335;51.148;6.950;2022-10-01T02:50:52;11.00;94.75
64858;SHT30;51335;51.148;6.950;2022-10-01T02:51:33;11.00;94.78
64858;SHT30;51335;51.148;6.950;2022-10-01T02:53:39;11.04;94.76
64858;SHT30;51335;51.148;6.950;2022-10-01T02:53:55;11.01;94.67
64858;SHT30;51335;51.148;6.950;2022-10-01T02:54:32;10.99;94.68
64858;SHT30;51335;51.148;6.950;2022-10-01T02:55:23;11.04;94.82
64858;SHT30;51335;51.148;6.950;2022-10-01T02:55:55;11.04;94.85
64858;SHT30;51335;51.148;6.950;2022-10-01T02:56:26;11.01;94.94
64858;SHT30;51335;51.148;6.950;2022-10-01T02:56:58;11.06;94.84
64858;SHT30;51335;51.148;6.950;2022-10-01T02:57:28;11.04;94.79
64858;SHT30;51335;51.148;6.950;2022-10-01T02:57:59;11.04;94.91
64858;SHT30;51335;51.148;6.950;2022-10-01T02:58:29;11.01;94.87
64858;SHT30;51335;51.148;6.950;2022-10-01T02:58:59;10.99;94.88
64858;SHT30;51335;51.148;6.950;2022-10-01T02:59:30;11.01;95.02
64858;SHT30;51335;51.148;6.950;2022-10-01T03:00:05;11.00;95.06
64858;SHT30;51335;51.148;6.950;2022-10-01T03:00:36;11.01;95.08
64858;SHT30;51335;51.148;6.950;2022-10-01T03:01:07;11.01;95.08
64858;SHT30;51335;51.148;6.950;2022-10-01T03:01:37;11.00;95.02
64858;SHT30;51335;51.148;6.950;2022-10-01T03:02:08;10.97;95.02
64858;SHT30;51335;51.148;6.950;2022-10-01T03:02:38;11.03;95.03
64858;SHT30;51335;51.148;6.950;2022-10-01T03:03:08;10.96;94.93
64858;SHT30;51335;51.148;6.950;2022-10-01T03:03:39;10.96;95.16
64858;SHT30;51335;51.148;6.950;2022-10-01T03:04:09;10.96;95.27
64858;SHT30;51335;51.148;6.950;2022-10-01T03:04:39;10.96;95.27
64858;SHT30;51335;51.148;6.950;2022-10-01T03:05:09;10.96;95.15
64858;SHT30;51335;51.148;6.950;2022-10-01T03:05:40;10.96;95.25
64858;SHT30;51335;51.148;6.950;2022-10-01T03:06:10;10.99;95.26
64858;SHT30;51335;51.148;6.950;2022-10-01T03:06:40;10.99;95.12
64858;SHT30;51335;51.148;6.950;2022-10-01T03:07:11;10.96;95.08
64858;SHT30;51335;51.148;6.950;2022-10-01T03:07:42;10.95;95.20
64858;SHT30;51335;51.148;6.950;2022-10-01T03:08:12;11.00;95.26
64858;SHT30;51335;51.148;6.950;2022-10-01T03:08:42;11.00;95.15
64858;SHT30;51335;51.148;6.950;2022-10-01T03:09:13;10.99;95.12
64858;SHT30;51335;51.148;6.950;2022-10-01T03:09:43;10.97;95.15
64858;SHT30;51335;51.148;6.950;2022-10-01T03:10:14;10.90;95.20
64858;SHT30;51335;51.148;6.950;2022-10-01T03:10:45;10.95;95.35
64858;SHT30;51335;51.148;6.950;2022-10-01T03:11:15;10.97;95.34
64858;SHT30;51335;51.148;6.950;2022-10-01T03:11:45;11.00;95.25
64858;SHT30;51335;51.148;6.950;2022-10-01T03:12:16;11.03;95.14
64858;SHT30;51335;51.148;6.950;2022-10-01T03:12:47;10.99;95.07
64858;SHT30;51335;51.148;6.950;2022-10-01T03:13:17;10.95;95.17
64858;SHT30;51335;51.148;6.950;2022-10-01T03:13:47;10.96;95.24
64858;SHT30;51335;51.148;6.950;2022-10-01T03:14:17;10.95;95.31
64858;SHT30;51335;51.148;6.950;2022-10-01T03:14:48;10.95;95.32
64858;SHT30;51335;51.148;6.950;2022-10-01T03:15:19;10.89;95.62
64858;SHT30;51335;51.148;6.950;2022-10-01T03:15:49;10.90;95.64
64858;SHT30;51335;51.148;6.950;2022-10-01T03:16:19;10.90;95.63
64858;SHT30;51335;51.148;6.950;2022-10-01T03:16:50;10.90;95.70
64858;SHT30;51335;51.148;6.950;2022-10-01T03:17:21;10.92;95.66
64858;SHT30;51335;51.148;6.950;2022-10-01T03:17:51;10.92;95.66
64858;SHT30;51335;51.148;6.950;2022-10-01T03:18:22;10.90;95.57
64858;SHT30;51335;51.148;6.950;2022-10-01T03:18:52;10.87;95.70
64858;SHT30;51335;51.148;6.950;2022-10-01T03:19:22;10.89;95.77
64858;SHT30;51335;51.148;6.950;2022-10-01T03:19:53;10.87;95.85
64858;SHT30;51335;51.148;6.950;2022-10-01T03:20:23;10.90;95.86
64858;SHT30;51335;51.148;6.950;2022-10-01T03:20:53;10.92;95.84
64858;SHT30;51335;51.148;6.950;2022-10-01T03:21:24;10.95;95.78
64858;SHT30;51335;51.148;6.950;2022-10-01T03:21:54;10.93;95.68
64858;SHT30;51335;51.148;6.950;2022-10-01T03:22:24;10.93;95.73
64858;SHT30;51335;51.148;6.950;2022-10-01T03:22:54;10.95;95.74
64858;SHT30;51335;51.148;6.950;2022-10-01T03:23:25;10.96;95.76
64858;SHT30;51335;51.148;6.950;2022-10-01T03:23:55;10.97;95.79
64858;SHT30;51335;51.148;6.950;2022-10-01T03:24:25;10.99;95.66
64858;SHT30;51335;51.148;6.950;2022-10-01T03:24:55;10.97;95.52
64858;SHT30;51335;51.148;6.950;2022-10-01T03:25:26;10.99;95.63
64858;SHT30;51335;51.148;6.950;2022-10-01T03:25:56;10.99;95.54
64858;SHT30;51335;51.148;6.950;2022-10-01T03:26:26;11.01;95.57
64858;SHT30;51335;51.148;6.950;2022-10-01T03:26:57;11.03;95.57
64858;SHT30;51335;51.148;6.950;2022-10-01T03:27:27;11.03;95.42
64858;SHT30;51335;51.148;6.950;2022-10-01T03:27:57;11.04;95.40
64858;SHT30;51335;51.148;6.950;2022-10-01T03:28:27;11.04;95.45
64858;SHT30;51335;51.148;6.950;2022-10-01T03:28:58;11.08;95.37
64858;SHT30;51335;51.148;6.950;2022-10-01T03:29:28;11.13;95.31
64858;SHT30;51335;51.148;6.950;2022-10-01T03:29:58;11.14;95.14
64858;SHT30;51335;51.148;6.950;2022-10-01T03:30:28;11.11;95.02
64858;SHT30;51335;51.148;6.950;2022-10-01T03:31:06;11.06;95.09
64858;SHT30;51335;51.148;6.950;2022-10-01T03:31:37;11.07;95.36
64858;SHT30;51335;51.148;6.950;2022-10-01T03:32:07;11.03;95.36
64858;SHT30;51335;51.148;6.950;2022-10-01T03:32:37;11.03;95.45
64858;SHT30;51335;51.148;6.950;2022-10-01T03:33:08;11.03;95.52
64858;SHT30;51335;51.148;6.950;2022-10-01T03:33:38;11.03;95.47
64858;SHT30;51335;51.148;6.950;2022-10-01T03:34:08;11.01;95.50
64858;SHT30;51335;51.148;6.950;2022-10-01T03:34:39;10.99;95.60
64858;SHT30;51335;51.148;6.950;2022-10-01T03:35:10;11.00;95.73
64858;SHT30;51335;51.148;6.950;2022-10-01T03:35:40;11.04;95.71
64858;SHT30;51335;51.148;6.950;2022-10-01T03:36:10;10.99;95.68
64858;SHT30;51335;51.148;6.950;2022-10-01T03:36:41;11.01;95.79
64858;SHT30;51335;51.148;6.950;2022-10-01T03:37:11;11.04;95.71
64858;SHT30;51335;51.148;6.950;2022-10-01T03:37:41;11.07;95.54
64858;SHT30;51335;51.148;6.950;2022-10-01T03:38:11;11.10;95.38
64858;SHT30;51335;51.148;6.950;2022-10-01T03:38:42;11.07;95.36
64858;SHT30;51335;51.148;6.950;2022-10-01T03:39:12;11.04;95.36
64858;SHT30;51335;51.148;6.950;2022-10-01T03:39:42;10.97;95.64
64858;SHT30;51335;51.148;6.950;2022-10-01T03:40:13;10.96;95.75
64858;SHT30;51335;51.148;6.950;2022-10-01T03:40:43;10.97;95.79
64858;SHT30;51335;51.148;6.950;2022-10-01T03:41:13;11.01;95.75
64858;SHT30;51335;51.148;6.950;2022-10-01T03:41:44;11.00;95.84
64858;SHT30;51335;51.148;6.950;2022-10-01T03:42:14;10.99;95.72
64858;SHT30;51335;51.148;6.950;2022-10-01T03:42:44;11.03;95.68
64858;SHT30;51335;51.148;6.950;2022-10-01T03:43:15;11.03;95.70
64858;SHT30;51335;51.148;6.950;2022-10-01T03:43:45;11.08;95.49
64858;SHT30;51335;51.148;6.950;2022-10-01T03:44:15;11.10;95.31
64858;SHT30;51335;51.148;6.950;2022-10-01T03:44:46;11.08;95.22
64858;SHT30;51335;51.148;6.950;2022-10-01T03:45:16;11.10;95.27
64858;SHT30;51335;51.148;6.950;2022-10-01T03:45:46;11.07;95.33
64858;SHT30;51335;51.148;6.950;2022-10-01T03:46:16;11.04;95.45
64858;SHT30;51335;51.148;6.950;2022-10-01T03:46:47;11.01;95.45
64858;SHT30;51335;51.148;6.950;2022-10-01T03:47:17;11.03;95.59
64858;SHT30;51335;51.148;6.950;2022-10-01T03:47:51;11.03;95.71
64858;SHT30;51335;51.148;6.950;2022-10-01T03:48:21;11.03;95.67
64858;SHT30;51335;51.148;6.950;2022-10-01T03:48:54;11.04;95.55
64858;SHT30;51335;51.148;6.950;2022-10-01T03:49:24;11.01;95.64
64858;SHT30;51335;51.148;6.950;2022-10-01T03:49:54;10.99;95.68
64858;SHT30;51335;51.148;6.950;2022-10-01T03:50:24;11.00;95.64